sensor_id;sensor_type;location;lat;lon;timestamp;pressure;altitude;pressure_sealevel;temperature;humidity
70445;BME280;57902;49.638;11.070;2023-05-11T00:00:34;97994.97;;;11.97;100.00
70445;BME280;57902;49.638;11.070;2023-05-11T00:03:00;97995.88;;;11.96;100.00
70445;BME280;57902;49.638;11.070;2023-05-11T00:05:27;97990.69;;;11.96;100.00
70445;BME280;57902;49.638;11.070;2023-05-11T00:07:53;97997.56;;;11.97;100.00
70445;BME280;57902;49.638;11.070;2023-05-11T00:10:20;97995.88;;;11.96;100.00
70445;BME280;57902;49.638;11.070;2023-05-11T00:12:46;97992.56;;;11.93;100.00
70445;BME280;57902;49.638;11.070;2023-05-11T00:15:13;97990.97;;;11.88;100.00
70445;BME280;57902;49.638;11.070;2023-05-11T00:17:39;97992.81;;;11.86;100.00
70445;BME280;57902;49.638;11.070;2023-05-11T00:20:06;97990.28;;;11.85;100.00
70445;BME280;57902;49.638;11.070;2023-05-11T00:22:33;97989.28;;;11.87;100.00
70445;BME280;57902;49.638;11.070;2023-05-11T00:24:59;97990.97;;;11.88;100.00
70445;BME280;57902;49.638;11.070;2023-05-11T00:27:26;97985.06;;;11.86;100.00
70445;BME280;57902;49.638;11.070;2023-05-11T00:29:52;97982.47;;;11.86;100.00
70445;BME280;57902;49.638;11.070;2023-05-11T00:32:19;97983.34;;;11.85;100.00
70445;BME280;57902;49.638;11.070;2023-05-11T00:34:46;97982.47;;;11.86;100.00
70445;BME280;57902;49.638;11.070;2023-05-11T00:37:12;97986.00;;;11.84;100.00
70445;BME280;57902;49.638;11.070;2023-05-11T00:39:39;97986.13;;;11.81;100.00
70445;BME280;57902;49.638;11.070;2023-05-11T00:42:06;97982.03;;;11.75;100.00
70445;BME280;57902;49.638;11.070;2023-05-11T00:44:32;97986.41;;;11.73;100.00
70445;BME280;57902;49.638;11.070;2023-05-11T00:46:59;97976.19;;;11.70;100.00
70445;BME280;57902;49.638;11.070;2023-05-11T00:49:26;97972.91;;;11.66;100.00
70445;BME280;57902;49.638;11.070;2023-05-11T00:51:53;97973.88;;;11.64;100.00
70445;BME280;57902;49.638;11.070;2023-05-11T00:54:19;97970.44;;;11.63;100.00
70445;BME280;57902;49.638;11.070;2023-05-11T00:56:46;97976.63;;;11.59;100.00
70445;BME280;57902;49.638;11.070;2023-05-11T00:59:13;97977.53;;;11.58;100.00
70445;BME280;57902;49.638;11.070;2023-05-11T01:01:40;97975.69;;;11.62;100.00
70445;BME280;57902;49.638;11.070;2023-05-11T01:04:07;97977.41;;;11.61;100.00
70445;BME280;57902;49.638;11.070;2023-05-11T01:06:46;97986.91;;;11.61;100.00
70445;BME280;57902;49.638;11.070;2023-05-11T01:09:26;97979.22;;;11.59;100.00
70445;BME280;57902;49.638;11.070;2023-05-11T01:18:03;97976.63;;;11.59;100.00
70445;BME280;57902;49.638;11.070;2023-05-11T01:20:34;97985.38;;;11.55;100.00
70445;BME280;57902;49.638;11.070;2023-05-11T01:23:06;97975.06;;;11.55;100.00
70445;BME280;57902;49.638;11.070;2023-05-11T01:28:24;97977.13;;;11.47;100.00
70445;BME280;57902;49.638;11.070;2023-05-11T01:30:57;97986.56;;;11.46;100.00
70445;BME280;57902;49.638;11.070;2023-05-11T01:33:32;97980.59;;;11.46;100.00
70445;BME280;57902;49.638;11.070;2023-05-11T01:36:04;97976.31;;;11.45;100.00
70445;BME280;57902;49.638;11.070;2023-05-11T01:38:34;97977.22;;;11.44;100.00
70445;BME280;57902;49.638;11.070;2023-05-11T01:41:08;97969.59;;;11.41;100.00
70445;BME280;57902;49.638;11.070;2023-05-11T01:43:36;97978.13;;;11.43;100.00
70445;BME280;57902;49.638;11.070;2023-05-11T01:46:05;97972.28;;;11.37;100.00
70445;BME280;57902;49.638;11.070;2023-05-11T01:48:37;97978.41;;;11.35;100.00
70445;BME280;57902;49.638;11.070;2023-05-11T01:51:06;97980.09;;;11.36;100.00
70445;BME280;57902;49.638;11.070;2023-05-11T01:53:36;97980.09;;;11.36;100.00
70445;BME280;57902;49.638;11.070;2023-05-11T01:56:03;97979.31;;;11.34;100.00
70445;BME280;57902;49.638;11.070;2023-05-11T01:58:31;97978.50;;;11.32;100.00
70445;BME280;57902;49.638;11.070;2023-05-11T02:00:59;97978.50;;;11.32;100.00
70445;BME280;57902;49.638;11.070;2023-05-11T02:03:30;97980.25;;;11.31;100.00
70445;BME280;57902;49.638;11.070;2023-05-11T02:05:58;97975.09;;;11.31;100.00
70445;BME280;57902;49.638;11.070;2023-05-11T02:08:28;97977.75;;;11.30;100.00
70445;BME280;57902;49.638;11.070;2023-05-11T02:10:57;97983.78;;;11.29;100.00
70445;BME280;57902;49.638;11.070;2023-05-11T02:13:25;97982.06;;;11.29;100.00
70445;BME280;57902;49.638;11.070;2023-05-11T02:15:53;97984.66;;;11.29;100.00
70445;BME280;57902;49.638;11.070;2023-05-11T02:18:21;97978.63;;;11.29;100.00
70445;BME280;57902;49.638;11.070;2023-05-11T02:20:48;97976.03;;;11.29;100.00
70445;BME280;57902;49.638;11.070;2023-05-11T02:23:15;97976.00;;;11.30;100.00
70445;BME280;57902;49.638;11.070;2023-05-11T02:25:43;97985.59;;;11.27;100.00
70445;BME280;57902;49.638;11.070;2023-05-11T02:28:10;97979.50;;;11.29;100.00
70445;BME280;57902;49.638;11.070;2023-05-11T02:30:46;97981.22;;;11.29;100.00
70445;BME280;57902;49.638;11.070;2023-05-11T02:33:18;97982.97;;;11.28;100.00
70445;BME280;57902;49.638;11.070;2023-05-11T02:35:47;97981.31;;;11.26;100.00
70445;BME280;57902;49.638;11.070;2023-05-11T02:38:16;97977.91;;;11.25;100.00
70445;BME280;57902;49.638;11.070;2023-05-11T02:40:45;97977.09;;;11.25;100.00
70445;BME280;57902;49.638;11.070;2023-05-11T02:43:19;97975.34;;;11.25;100.00
70445;BME280;57902;49.638;11.070;2023-05-11T02:45:49;97973.59;;;11.26;100.00
70445;BME280;57902;49.638;11.070;2023-05-11T02:48:26;97972.63;;;11.28;100.00
70445;BME280;57902;49.638;11.070;2023-05-11T02:50:54;97967.59;;;11.25;100.00
70445;BME280;57902;49.638;11.070;2023-05-11T02:53:26;97976.56;;;11.15;100.00
70445;BME280;57902;49.638;11.070;2023-05-11T02:55:56;97968.84;;;11.15;100.00
70445;BME280;57902;49.638;11.070;2023-05-11T02:58:23;97972.31;;;11.14;100.00
70445;BME280;57902;49.638;11.070;2023-05-11T03:00:50;97970.63;;;11.13;100.00
70445;BME280;57902;49.638;11.070;2023-05-11T03:03:17;97964.78;;;11.08;100.00
70445;BME280;57902;49.638;11.070;2023-05-11T03:05:44;97968.16;;;11.10;100.00
70445;BME280;57902;49.638;11.070;2023-05-11T03:08:11;97961.50;;;11.04;100.00
70445;BME280;57902;49.638;11.070;2023-05-11T03:10:37;97977.00;;;11.02;100.00
70445;BME280;57902;49.638;11.070;2023-05-11T03:13:06;97972.81;;;11.00;100.00
70445;BME280;57902;49.638;11.070;2023-05-11T03:15:34;97968.59;;;10.97;100.00
70445;BME280;57902;49.638;11.070;2023-05-11T03:18:03;97974.66;;;10.96;100.00
70445;BME280;57902;49.638;11.070;2023-05-11T03:20:32;97974.66;;;10.96;100.00
70445;BME280;57902;49.638;11.070;2023-05-11T03:23:01;97976.47;;;10.94;100.00
70445;BME280;57902;49.638;11.070;2023-05-11T03:25:29;97975.88;;;10.86;100.00
70445;BME280;57902;49.638;11.070;2023-05-11T03:27:56;97974.09;;;10.88;100.00
70445;BME280;57902;49.638;11.070;2023-05-11T03:30:24;97970.72;;;10.86;100.00
70445;BME280;57902;49.638;11.070;2023-05-11T03:32:51;97968.19;;;10.84;100.00
70445;BME280;57902;49.638;11.070;2023-05-11T03:35:18;97968.03;;;10.89;100.00
70445;BME280;57902;49.638;11.070;2023-05-11T03:37:47;97968.94;;;10.88;100.00
70445;BME280;57902;49.638;11.070;2023-05-11T03:40:15;97968.03;;;10.89;100.00
70445;BME280;57902;49.638;11.070;2023-05-11T03:42:45;97971.53;;;10.88;100.00
70445;BME280;57902;49.638;11.070;2023-05-11T03:45:13;97966.38;;;10.88;100.00
70445;BME280;57902;49.638;11.070;2023-05-11T03:47:42;97975.78;;;10.89;100.00
70445;BME280;57902;49.638;11.070;2023-05-11T03:50:10;97965.44;;;10.89;100.00
70445;BME280;57902;49.638;11.070;2023-05-11T03:52:38;97969.66;;;10.92;100.00
70445;BME280;57902;49.638;11.070;2023-05-11T03:55:06;97965.41;;;10.91;100.00
70445;BME280;57902;49.638;11.070;2023-05-11T03:57:33;97968.78;;;10.93;100.00
70445;BME280;57902;49.638;11.070;2023-05-11T03:59:59;97959.22;;;10.95;100.00
70445;BME280;57902;49.638;11.070;2023-05-11T04:02:26;97961.63;;;10.99;100.00
70445;BME280;57902;49.638;11.070;2023-05-11T04:04:52;97958.22;;;10.99;100.00
70445;BME280;57902;49.638;11.070;2023-05-11T04:07:19;97957.41;;;10.98;100.00
70445;BME280;57902;49.638;11.070;2023-05-11T04:09:46;97954.88;;;10.97;100.00
70445;BME280;57902;49.638;11.070;2023-05-11T04:12:12;97958.28;;;10.97;100.00
70445;BME280;57902;49.638;11.070;2023-05-11T04:14:39;97959.22;;;10.95;100.00
70445;BME280;57902;49.638;11.070;2023-05-11T04:17:05;97957.41;;;10.98;100.00
70445;BME280;57902;49.638;11.070;2023-05-11T04:19:31;97953.78;;;11.02;100.00
70445;BME280;57902;49.638;11.070;2023-05-11T04:21:58;97957.00;;;11.09;100.00
70445;BME280;57902;49.638;11.070;2023-05-11T04:24:25;97955.25;;;11.10;100.00
70445;BME280;57902;49.638;11.070;2023-05-11T04:26:55;97954.47;;;11.08;100.00
70445;BME280;57902;49.638;11.070;2023-05-11T04:29:21;97955.25;;;11.10;100.00
70445;BME280;57902;49.638;11.070;2023-05-11T04:31:48;97956.09;;;11.10;100.00
70445;BME280;57902;49.638;11.070;2023-05-11T04:34:15;97951.00;;;11.09;100.00
70445;BME280;57902;49.638;11.070;2023-05-11T04:36:41;97950.31;;;11.03;100.00
70445;BME280;57902;49.638;11.070;2023-05-11T04:39:08;97952.91;;;11.03;100.00
70445;BME280;57902;49.638;11.070;2023-05-11T04:41:35;97953.75;;;11.04;100.00
70445;BME280;57902;49.638;11.070;2023-05-11T04:44:01;97957.06;;;11.08;100.00
70445;BME280;57902;49.638;11.070;2023-05-11T04:46:27;97965.91;;;11.00;100.00
70445;BME280;57902;49.638;11.070;2023-05-11T04:48:54;97958.00;;;11.05;100.00
70445;BME280;57902;49.638;11.070;2023-05-11T04:51:21;97962.94;;;11.11;100.00
70445;BME280;57902;49.638;11.070;2023-05-11T04:53:47;97966.38;;;11.12;100.00
70445;BME280;57902;49.638;11.070;2023-05-11T04:56:14;97967.09;;;11.15;100.00
70445;BME280;57902;49.638;11.070;2023-05-11T04:58:40;97972.00;;;11.21;100.00
70445;BME280;57902;49.638;11.070;2023-05-11T05:01:07;97968.66;;;11.19;100.00
70445;BME280;57902;49.638;11.070;2023-05-11T05:03:33;97970.16;;;11.25;100.00
70445;BME280;57902;49.638;11.070;2023-05-11T05:06:00;97965.53;;;11.33;100.00
70445;BME280;57902;49.638;11.070;2023-05-11T05:08:26;97968.69;;;11.42;100.00
70445;BME280;57902;49.638;11.070;2023-05-11T05:10:52;97969.38;;;11.47;100.00
70445;BME280;57902;49.638;11.070;2023-05-11T05:13:19;97963.72;;;11.59;100.00
70445;BME280;57902;49.638;11.070;2023-05-11T05:15:45;97966.00;;;11.67;100.00
70445;BME280;57902;49.638;11.070;2023-05-11T05:18:12;97968.06;;;11.81;100.00
70445;BME280;57902;49.638;11.070;2023-05-11T05:20:38;97969.50;;;11.88;100.00
70445;BME280;57902;49.638;11.070;2023-05-11T05:23:05;97980.19;;;12.01;100.00
70445;BME280;57902;49.638;11.070;2023-05-11T05:25:32;97982.69;;;12.02;100.00
70445;BME280;57902;49.638;11.070;2023-05-11T05:27:58;97983.38;;;12.07;100.00
70445;BME280;57902;49.638;11.070;2023-05-11T05:30:24;97984.81;;;11.93;100.00
70445;BME280;57902;49.638;11.070;2023-05-11T05:32:51;97984.00;;;11.90;100.00
70445;BME280;57902;49.638;11.070;2023-05-11T05:35:18;97983.94;;;11.92;100.00
70445;BME280;57902;49.638;11.070;2023-05-11T05:37:44;97984.38;;;11.81;100.00
70445;BME280;57902;49.638;11.070;2023-05-11T05:40:11;97984.31;;;11.83;100.00
70445;BME280;57902;49.638;11.070;2023-05-11T05:42:37;97989.72;;;11.77;100.00
70445;BME280;57902;49.638;11.070;2023-05-11T05:45:04;97987.38;;;11.70;100.00
70445;BME280;57902;49.638;11.070;2023-05-11T05:47:30;97997.16;;;11.62;100.00
70445;BME280;57902;49.638;11.070;2023-05-11T05:49:57;97990.69;;;11.74;100.00
70445;BME280;57902;49.638;11.070;2023-05-11T05:52:23;97995.00;;;11.73;100.00
70445;BME280;57902;49.638;11.070;2023-05-11T05:54:50;97996.53;;;11.79;100.00
70445;BME280;57902;49.638;11.070;2023-05-11T05:57:16;98002.81;;;11.72;100.00
70445;BME280;57902;49.638;11.070;2023-05-11T05:59:43;97996.91;;;11.68;100.00
70445;BME280;57902;49.638;11.070;2023-05-11T06:02:09;97997.53;;;11.75;100.00
70445;BME280;57902;49.638;11.070;2023-05-11T06:04:38;97994.06;;;11.76;100.00
70445;BME280;57902;49.638;11.070;2023-05-11T06:07:04;97999.16;;;11.78;100.00
70445;BME280;57902;49.638;11.070;2023-05-11T06:09:31;97992.31;;;11.77;100.00
70445;BME280;57902;49.638;11.070;2023-05-11T06:11:57;98006.91;;;11.78;100.00
70445;BME280;57902;49.638;11.070;2023-05-11T06:14:24;98005.88;;;11.82;100.00
70445;BME280;57902;49.638;11.070;2023-05-11T06:16:50;98006.53;;;11.87;100.00
70445;BME280;57902;49.638;11.070;2023-05-11T06:19:18;98005.09;;;11.80;100.00
70445;BME280;57902;49.638;11.070;2023-05-11T06:21:45;98005.03;;;11.81;100.00
70445;BME280;57902;49.638;11.070;2023-05-11T06:24:13;98006.78;;;11.81;100.00
70445;BME280;57902;49.638;11.070;2023-05-11T06:26:39;98000.31;;;11.70;100.00
70445;BME280;57902;49.638;11.070;2023-05-11T06:29:06;98006.47;;;11.66;100.00
70445;BME280;57902;49.638;11.070;2023-05-11T06:31:33;98006.72;;;11.60;100.00
70445;BME280;57902;49.638;11.070;2023-05-11T06:33:59;98007.59;;;11.59;100.00
70445;BME280;57902;49.638;11.070;2023-05-11T06:36:26;98008.16;;;11.67;100.00
70445;BME280;57902;49.638;11.070;2023-05-11T06:38:52;98003.16;;;11.63;100.00
70445;BME280;57902;49.638;11.070;2023-05-11T06:41:19;98002.44;;;11.59;100.00
70445;BME280;57902;49.638;11.070;2023-05-11T06:43:46;98004.38;;;11.54;100.00
70445;BME280;57902;49.638;11.070;2023-05-11T06:46:13;98000.63;;;11.61;100.00
70445;BME280;57902;49.638;11.070;2023-05-11T06:48:42;97998.78;;;11.65;100.00
70445;BME280;57902;49.638;11.070;2023-05-11T06:51:10;98001.25;;;11.68;100.00
70445;BME280;57902;49.638;11.070;2023-05-11T06:53:37;98004.53;;;11.71;100.00
70445;BME280;57902;49.638;11.070;2023-05-11T06:56:04;98006.19;;;11.74;100.00
70445;BME280;57902;49.638;11.070;2023-05-11T06:58:30;98003.41;;;11.79;100.00
70445;BME280;57902;49.638;11.070;2023-05-11T07:00:57;98006.34;;;11.91;100.00
70445;BME280;57902;49.638;11.070;2023-05-11T07:03:23;97997.09;;;11.86;100.00
70445;BME280;57902;49.638;11.070;2023-05-11T07:05:50;98003.75;;;11.93;100.00
70445;BME280;57902;49.638;11.070;2023-05-11T07:08:17;98003.78;;;11.91;100.00
70445;BME280;57902;49.638;11.070;2023-05-11T07:10:43;98003.69;;;11.95;100.00
70445;BME280;57902;49.638;11.070;2023-05-11T07:13:09;98002.66;;;11.99;100.00
70445;BME280;57902;49.638;11.070;2023-05-11T07:15:36;98008.91;;;11.93;100.00
70445;BME280;57902;49.638;11.070;2023-05-11T07:18:03;98010.63;;;11.93;100.00
70445;BME280;57902;49.638;11.070;2023-05-11T07:20:29;98014.56;;;12.03;100.00
70445;BME280;57902;49.638;11.070;2023-05-11T07:22:57;98010.28;;;12.02;100.00
70445;BME280;57902;49.638;11.070;2023-05-11T07:25:26;98012.03;;;12.01;100.00
70445;BME280;57902;49.638;11.070;2023-05-11T07:27:53;98020.38;;;12.08;100.00
70445;BME280;57902;49.638;11.070;2023-05-11T07:30:20;98017.16;;;12.03;100.00
70445;BME280;57902;49.638;11.070;2023-05-11T07:32:47;98012.34;;;11.94;100.00
70445;BME280;57902;49.638;11.070;2023-05-11T07:35:14;98007.13;;;11.95;100.00
70445;BME280;57902;49.638;11.070;2023-05-11T07:37:40;98014.88;;;11.95;100.00
70445;BME280;57902;49.638;11.070;2023-05-11T07:40:08;98010.75;;;11.89;100.00
70445;BME280;57902;49.638;11.070;2023-05-11T07:42:34;98017.41;;;11.97;100.00
70445;BME280;57902;49.638;11.070;2023-05-11T07:45:01;98013.94;;;11.96;100.00
70445;BME280;57902;49.638;11.070;2023-05-11T07:47:27;98017.28;;;12.00;100.00
70445;BME280;57902;49.638;11.070;2023-05-11T07:49:53;98014.94;;;11.94;100.00
70445;BME280;57902;49.638;11.070;2023-05-11T07:52:20;98016.41;;;11.99;100.00
70445;BME280;57902;49.638;11.070;2023-05-11T07:54:46;98022.25;;;12.04;100.00
70445;BME280;57902;49.638;11.070;2023-05-11T07:57:13;98016.19;;;12.05;100.00
70445;BME280;57902;49.638;11.070;2023-05-11T07:59:39;98014.50;;;12.04;100.00
70445;BME280;57902;49.638;11.070;2023-05-11T08:02:07;98014.81;;;11.97;100.00
70445;BME280;57902;49.638;11.070;2023-05-11T08:04:38;98011.38;;;11.96;100.00
70445;BME280;57902;49.638;11.070;2023-05-11T08:07:04;98019.91;;;11.98;100.00
70445;BME280;57902;49.638;11.070;2023-05-11T08:09:31;98018.88;;;12.02;100.00
70445;BME280;57902;49.638;11.070;2023-05-11T08:11:58;98015.34;;;12.05;100.00
70445;BME280;57902;49.638;11.070;2023-05-11T08:14:26;98018.53;;;12.12;100.00
70445;BME280;57902;49.638;11.070;2023-05-11T08:16:53;98016.78;;;12.12;100.00
70445;BME280;57902;49.638;11.070;2023-05-11T08:19:20;98014.97;;;12.14;100.00
70445;BME280;57902;49.638;11.070;2023-05-11T08:21:46;98011.41;;;12.17;100.00
70445;BME280;57902;49.638;11.070;2023-05-11T08:24:13;98017.38;;;12.19;100.00
70445;BME280;57902;49.638;11.070;2023-05-11T08:26:39;98012.22;;;12.19;100.00
70445;BME280;57902;49.638;11.070;2023-05-11T08:29:06;98018.22;;;12.19;100.00
70445;BME280;57902;49.638;11.070;2023-05-11T08:31:32;98015.69;;;12.18;100.00
70445;BME280;57902;49.638;11.070;2023-05-11T08:33:59;98017.56;;;12.14;100.00
70445;BME280;57902;49.638;11.070;2023-05-11T08:36:26;98008.13;;;12.13;100.00
70445;BME280;57902;49.638;11.070;2023-05-11T08:38:52;98019.28;;;12.14;100.00
70445;BME280;57902;49.638;11.070;2023-05-11T08:41:24;98018.34;;;12.16;100.00
70445;BME280;57902;49.638;11.070;2023-05-11T08:43:51;98019.91;;;12.20;100.00
70445;BME280;57902;49.638;11.070;2023-05-11T08:49:45;98018.44;;;12.35;100.00
70445;BME280;57902;49.638;11.070;2023-05-11T08:52:13;98016.66;;;12.36;100.00
70445;BME280;57902;49.638;11.070;2023-05-11T08:54:41;98020.13;;;12.36;100.00
70445;BME280;57902;49.638;11.070;2023-05-11T08:57:09;98020.25;;;12.33;100.00
70445;BME280;57902;49.638;11.070;2023-05-11T08:59:35;98021.00;;;12.35;100.00
70445;BME280;57902;49.638;11.070;2023-05-11T09:02:03;98019.31;;;12.34;100.00
70445;BME280;57902;49.638;11.070;2023-05-11T09:04:32;98023.22;;;12.45;100.00
70445;BME280;57902;49.638;11.070;2023-05-11T09:06:59;98026.38;;;12.31;100.00
70445;BME280;57902;49.638;11.070;2023-05-11T09:09:26;98018.56;;;12.32;100.00
70445;BME280;57902;49.638;11.070;2023-05-11T09:11:52;98019.44;;;12.31;100.00
70445;BME280;57902;49.638;11.070;2023-05-11T09:14:20;98015.72;;;12.38;100.00
70445;BME280;57902;49.638;11.070;2023-05-11T09:16:52;98019.25;;;12.36;100.00
70445;BME280;57902;49.638;11.070;2023-05-11T09:19:19;98022.03;;;12.31;100.00
70445;BME280;57902;49.638;11.070;2023-05-11T09:21:51;98015.16;;;12.30;100.00
70445;BME280;57902;49.638;11.070;2023-05-11T09:24:19;98014.16;;;12.34;100.00
70445;BME280;57902;49.638;11.070;2023-05-11T09:26:46;98013.38;;;12.32;100.00
70445;BME280;57902;49.638;11.070;2023-05-11T09:29:13;98023.00;;;12.29;100.00
70445;BME280;57902;49.638;11.070;2023-05-11T09:31:42;98012.53;;;12.32;100.00
70445;BME280;57902;49.638;11.070;2023-05-11T09:34:12;98009.50;;;12.22;100.00
70445;BME280;57902;49.638;11.070;2023-05-11T09:36:46;98008.97;;;12.34;100.00
70445;BME280;57902;49.638;11.070;2023-05-11T09:39:14;98013.50;;;12.29;100.00
70445;BME280;57902;49.638;11.070;2023-05-11T09:41:42;98016.16;;;12.28;100.00
70445;BME280;57902;49.638;11.070;2023-05-11T09:44:10;98014.09;;;12.36;100.00
70445;BME280;57902;49.638;11.070;2023-05-11T09:46:38;98011.63;;;12.33;100.00
70445;BME280;57902;49.638;11.070;2023-05-11T09:49:09;98013.97;;;12.39;100.00
70445;BME280;57902;49.638;11.070;2023-05-11T09:51:37;98007.38;;;12.52;100.00
70445;BME280;57902;49.638;11.070;2023-05-11T09:54:16;98006.03;;;12.64;100.00
70445;BME280;57902;49.638;11.070;2023-05-11T09:56:53;98006.66;;;12.69;100.00
70445;BME280;57902;49.638;11.070;2023-05-11T09:59:38;98005.75;;;12.91;100.00
70445;BME280;57902;49.638;11.070;2023-05-11T10:02:22;98004.44;;;13.01;100.00
70445;BME280;57902;49.638;11.070;2023-05-11T10:04:51;98002.81;;;12.99;100.00
70445;BME280;57902;49.638;11.070;2023-05-11T10:07:23;98007.47;;;12.90;100.00
70445;BME280;57902;49.638;11.070;2023-05-11T10:09:52;98007.84;;;13.02;100.00
70445;BME280;57902;49.638;11.070;2023-05-11T10:12:21;98005.78;;;13.10;100.00
70445;BME280;57902;49.638;11.070;2023-05-11T10:14:51;98000.44;;;12.94;100.00
70445;BME280;57902;49.638;11.070;2023-05-11T10:17:18;98004.34;;;12.84;100.00
70445;BME280;57902;49.638;11.070;2023-05-11T10:19:48;98006.97;;;13.03;100.00
70445;BME280;57902;49.638;11.070;2023-05-11T10:22:15;97997.06;;;12.92;100.00
70445;BME280;57902;49.638;11.070;2023-05-11T10:24:45;97998.63;;;12.96;100.00
70445;BME280;57902;49.638;11.070;2023-05-11T10:27:12;97998.13;;;12.88;100.00
70445;BME280;57902;49.638;11.070;2023-05-11T10:29:39;98001.75;;;12.84;100.00
70445;BME280;57902;49.638;11.070;2023-05-11T10:32:06;97990.38;;;12.88;100.00
70445;BME280;57902;49.638;11.070;2023-05-11T10:34:37;97991.88;;;12.92;100.00
70445;BME280;57902;49.638;11.070;2023-05-11T10:37:09;97991.06;;;12.91;100.00
70445;BME280;57902;49.638;11.070;2023-05-11T10:39:39;97982.34;;;12.94;100.00
70445;BME280;57902;49.638;11.070;2023-05-11T11:02:31;97983.50;;;12.87;100.00
70445;BME280;57902;49.638;11.070;2023-05-11T11:04:58;97976.25;;;12.95;100.00
70445;BME280;57902;49.638;11.070;2023-05-11T11:07:27;97977.44;;;12.88;100.00
70445;BME280;57902;49.638;11.070;2023-05-11T11:09:58;97978.91;;;12.93;100.00
70445;BME280;57902;49.638;11.070;2023-05-11T11:12:27;97970.16;;;12.96;100.00
70445;BME280;57902;49.638;11.070;2023-05-11T11:14:59;97977.03;;;12.97;100.00
70445;BME280;57902;49.638;11.070;2023-05-11T11:17:30;97971.19;;;12.92;100.00
70445;BME280;57902;49.638;11.070;2023-05-11T11:19:58;97974.84;;;12.88;100.00
70445;BME280;57902;49.638;11.070;2023-05-11T11:25:08;97966.38;;;13.03;100.00
70445;BME280;57902;49.638;11.070;2023-05-11T11:33:33;97970.44;;;12.90;100.00
70445;BME280;57902;49.638;11.070;2023-05-11T11:38:10;97962.81;;;12.87;100.00
70445;BME280;57902;49.638;11.070;2023-05-11T11:40:37;97968.94;;;12.84;100.00
70445;BME280;57902;49.638;11.070;2023-05-11T11:43:17;97977.97;;;12.94;100.00
70445;BME280;57902;49.638;11.070;2023-05-11T11:45:58;97973.81;;;13.11;100.00
70445;BME280;57902;49.638;11.070;2023-05-11T11:48:29;97965.72;;;13.19;100.00
70445;BME280;57902;49.638;11.070;2023-05-11T11:51:07;97976.28;;;13.33;100.00
70445;BME280;57902;49.638;11.070;2023-05-11T12:01:17;97973.38;;;13.41;100.00
70445;BME280;57902;49.638;11.070;2023-05-11T12:03:45;97970.69;;;13.42;100.00
70445;BME280;57902;49.638;11.070;2023-05-11T12:06:13;97967.75;;;13.50;100.00
70445;BME280;57902;49.638;11.070;2023-05-11T12:08:42;97978.19;;;13.48;100.00
70445;BME280;57902;49.638;11.070;2023-05-11T12:11:09;97971.53;;;13.43;100.00
70445;BME280;57902;49.638;11.070;2023-05-11T12:13:36;97976.63;;;13.44;100.00
70445;BME280;57902;49.638;11.070;2023-05-11T12:16:15;97973.66;;;13.35;100.00
70445;BME280;57902;49.638;11.070;2023-05-11T12:18:51;97977.69;;;13.40;100.00
70445;BME280;57902;49.638;11.070;2023-05-11T12:21:19;97966.72;;;13.35;100.00
70445;BME280;57902;49.638;11.070;2023-05-11T12:24:00;97972.66;;;13.37;100.00
70445;BME280;57902;49.638;11.070;2023-05-11T12:26:28;97975.75;;;13.45;100.00
70445;BME280;57902;49.638;11.070;2023-05-11T12:31:35;97976.16;;;13.55;100.00
70445;BME280;57902;49.638;11.070;2023-05-11T12:34:05;97970.13;;;13.55;100.00
70445;BME280;57902;49.638;11.070;2023-05-11T12:36:33;97971.81;;;13.56;100.00
70445;BME280;57902;49.638;11.070;2023-05-11T12:38:59;97977.34;;;13.67;100.00
70445;BME280;57902;49.638;11.070;2023-05-11T12:41:26;97966.03;;;13.68;100.00
70445;BME280;57902;49.638;11.070;2023-05-11T12:43:53;97963.59;;;13.65;100.00
70445;BME280;57902;49.638;11.070;2023-05-11T12:46:21;97966.03;;;13.68;100.00
70445;BME280;57902;49.638;11.070;2023-05-11T12:48:49;97966.97;;;13.67;100.00
70445;BME280;57902;49.638;11.070;2023-05-11T12:54:10;97964.09;;;13.73;100.00
70445;BME280;57902;49.638;11.070;2023-05-11T12:56:45;97973.06;;;13.66;100.00
70445;BME280;57902;49.638;11.070;2023-05-11T13:01:51;97964.88;;;13.37;100.00
70445;BME280;57902;49.638;11.070;2023-05-11T13:04:27;97966.31;;;13.24;100.00
70445;BME280;57902;49.638;11.070;2023-05-11T13:06:54;97966.19;;;13.27;100.00
70445;BME280;57902;49.638;11.070;2023-05-11T13:09:24;97969.78;;;13.24;100.00
70445;BME280;57902;49.638;11.070;2023-05-11T13:12:17;97967.03;;;13.08;100.00
70445;BME280;57902;49.638;11.070;2023-05-11T13:14:45;97964.25;;;13.13;100.00
70445;BME280;57902;49.638;11.070;2023-05-11T13:17:27;97960.75;;;13.14;100.00
70445;BME280;57902;49.638;11.070;2023-05-11T13:19:54;97955.34;;;13.19;100.00
70445;BME280;57902;49.638;11.070;2023-05-11T13:22:21;97963.66;;;13.06;100.00
70445;BME280;57902;49.638;11.070;2023-05-11T13:24:47;97955.28;;;13.01;100.00
70445;BME280;57902;49.638;11.070;2023-05-11T13:27:16;97955.13;;;13.04;100.00
70445;BME280;57902;49.638;11.070;2023-05-11T13:29:42;97951.06;;;12.99;100.00
70445;BME280;57902;49.638;11.070;2023-05-11T13:32:09;97965.63;;;13.01;100.00
70445;BME280;57902;49.638;11.070;2023-05-11T13:34:36;97954.16;;;13.07;100.00
70445;BME280;57902;49.638;11.070;2023-05-11T13:37:03;97953.03;;;13.12;100.00
70445;BME280;57902;49.638;11.070;2023-05-11T13:39:29;97955.91;;;13.06;100.00
70445;BME280;57902;49.638;11.070;2023-05-11T13:41:57;97951.50;;;13.08;100.00
70445;BME280;57902;49.638;11.070;2023-05-11T13:44:23;97958.47;;;13.06;100.00